Terminal Aerodrome Forecast
Issued by NWS Upton, NY

Home | Current Version | Previous Version | Text Only | Print | Product List | Glossary On
Versions: 1 2 3 4 5 6 7 8 9 10 11 12 13 14 15 16 17 18 19 20 21 22 23 24 25
000
FTUS41 KOKX 222200 AAB
TAFBDR
TAF AMD
KBDR 222210Z 2222/2318 02017G25KT P6SM -SHRA BKN015 OVC025
     FM230000 01018G28KT 4SM -RA BR BKN012
     FM230500 35018G28KT 4SM -RA BR BKN009
     FM231300 25016G28KT 6SM BR VCSH BKN015=

USA.gov is the U.S. government's official web portal to all federal, state and local government web resources and services.